createdAt,value
2023-04-18T00:01:38.489Z,9.51
2023-04-18T00:06:41.365Z,9.50
2023-04-18T00:11:44.526Z,9.54
2023-04-18T00:16:47.706Z,9.51
2023-04-18T00:21:54.099Z,9.49
2023-04-18T00:26:57.344Z,9.51
2023-04-18T00:32:00.185Z,9.49
2023-04-18T00:37:02.981Z,9.50
2023-04-18T00:42:06.209Z,9.46
2023-04-18T00:47:09.037Z,9.44
2023-04-18T00:52:13.202Z,9.45
2023-04-18T00:57:16.564Z,9.48
2023-04-18T01:02:19.989Z,9.49
2023-04-18T01:07:22.939Z,9.48
2023-04-18T01:12:25.838Z,9.47
2023-04-18T01:17:29.835Z,9.47
2023-04-18T01:22:33.586Z,9.42
2023-04-18T01:27:36.321Z,9.38
2023-04-18T01:32:39.212Z,9.38
2023-04-18T01:37:42.227Z,9.41
2023-04-18T01:42:45.093Z,9.40
2023-04-18T01:47:48.220Z,9.37
2023-04-18T01:52:51.058Z,9.33
2023-04-18T01:57:53.899Z,9.29
2023-04-18T02:02:59.831Z,9.29
2023-04-18T02:08:02.992Z,9.27
2023-04-18T02:13:06.882Z,9.28
2023-04-18T02:18:09.843Z,9.28
2023-04-18T02:23:12.713Z,9.29
2023-04-18T02:28:15.553Z,9.26
2023-04-18T02:33:18.373Z,9.27
2023-04-18T02:38:21.564Z,9.32
2023-04-18T02:43:24.354Z,9.31
2023-04-18T02:48:27.342Z,9.30
2023-04-18T02:53:30.308Z,9.27
2023-04-18T02:58:34.894Z,9.27
2023-04-18T03:03:38.102Z,9.26
2023-04-18T03:08:41.332Z,9.24
2023-04-18T03:13:44.169Z,9.23
2023-04-18T03:18:47.052Z,9.22
2023-04-18T03:23:50.249Z,9.23
2023-04-18T03:28:53.072Z,9.28
2023-04-18T03:33:55.888Z,9.31
2023-04-18T03:38:58.712Z,9.29
2023-04-18T03:44:01.558Z,9.31
2023-04-18T03:49:04.415Z,9.32
2023-04-18T03:54:07.219Z,9.31
2023-04-18T03:59:11.200Z,9.33
2023-04-18T04:04:15.787Z,9.35
2023-04-18T04:09:19.065Z,9.34
2023-04-18T04:14:22.932Z,9.32
2023-04-18T04:19:25.787Z,9.33
2023-04-18T04:24:29.263Z,9.36
2023-04-18T04:29:32.119Z,9.34
2023-04-18T04:34:35.751Z,9.34
2023-04-18T04:39:38.728Z,9.34
2023-04-18T04:44:43.046Z,9.38
2023-04-18T04:49:46.601Z,9.41
2023-04-18T04:54:51.879Z,9.39
2023-04-18T04:59:54.725Z,9.34
2023-04-18T05:04:57.538Z,9.37
2023-04-18T05:10:00.350Z,9.40
2023-04-18T05:15:03.634Z,9.38
2023-04-18T05:20:07.403Z,9.38
2023-04-18T05:25:10.617Z,9.38
2023-04-18T05:30:13.921Z,9.41
2023-04-18T05:35:16.827Z,9.48
2023-04-18T05:40:19.726Z,9.53
2023-04-18T05:45:22.515Z,9.58
2023-04-18T05:50:25.376Z,9.63
2023-04-18T05:55:28.345Z,9.59
2023-04-18T06:00:31.575Z,9.59
2023-04-18T06:05:34.770Z,9.59
2023-04-18T06:10:39.138Z,9.61
2023-04-18T06:15:42.332Z,9.66
2023-04-18T06:20:45.417Z,9.74
2023-04-18T06:25:48.794Z,9.75
2023-04-18T06:30:51.688Z,9.77
2023-04-18T06:35:54.614Z,9.81
2023-04-18T06:40:57.454Z,9.88
2023-04-18T06:46:01.243Z,9.97
2023-04-18T06:51:04.510Z,10.06
2023-04-18T06:56:07.869Z,10.09
2023-04-18T07:01:10.771Z,10.11
2023-04-18T07:06:13.668Z,10.19
2023-04-18T07:11:18.616Z,10.28
2023-04-18T07:16:21.663Z,10.35
2023-04-18T07:21:24.567Z,10.44
2023-04-18T07:26:27.751Z,10.60
2023-04-18T07:31:32.038Z,10.74
2023-04-18T07:36:35.045Z,10.80
2023-04-18T07:41:37.862Z,10.87
2023-04-18T07:46:40.935Z,10.97
2023-04-18T07:51:43.930Z,11.08
2023-04-18T07:56:46.851Z,11.11
2023-04-18T08:01:49.792Z,11.17
2023-04-18T08:06:52.995Z,11.19
2023-04-18T08:11:56.947Z,11.23
2023-04-18T08:16:59.806Z,11.28
2023-04-18T08:22:10.706Z,11.35
2023-04-18T08:27:13.648Z,11.44
2023-04-18T08:32:16.486Z,11.51
2023-04-18T08:37:19.422Z,11.58
2023-04-18T08:42:23.517Z,11.61
2023-04-18T08:47:30.373Z,11.67
2023-04-18T08:52:36.203Z,11.80
2023-04-18T08:57:39.978Z,11.96
2023-04-18T09:02:43.861Z,12.08
2023-04-18T09:07:49.639Z,12.21
2023-04-18T09:12:52.550Z,12.32
2023-04-18T09:18:02.705Z,12.41
2023-04-18T09:23:10.670Z,12.50
2023-04-18T09:28:28.899Z,12.53
2023-04-18T09:33:36.851Z,12.72
2023-04-18T09:38:41.314Z,12.99
2023-04-18T09:43:47.256Z,13.14
2023-04-18T09:48:50.331Z,13.15
2023-04-18T09:53:53.976Z,13.12
2023-04-18T09:59:08.450Z,13.15
2023-04-18T10:04:12.902Z,13.18
2023-04-18T10:09:16.484Z,13.23
2023-04-18T10:14:19.921Z,13.27
2023-04-18T10:19:26.102Z,13.29
2023-04-18T10:24:56.134Z,13.35
2023-04-18T10:29:59.121Z,13.42
2023-04-18T10:35:02.213Z,13.53
2023-04-18T10:40:07.641Z,13.56
2023-04-18T10:45:24.742Z,13.54
2023-04-18T10:50:27.569Z,13.56
2023-04-18T10:55:31.547Z,13.66
2023-04-18T11:00:34.766Z,13.78
2023-04-18T11:05:37.797Z,13.83
2023-04-18T11:10:43.764Z,13.88
2023-04-18T11:15:46.589Z,13.95
2023-04-18T11:20:51.686Z,13.97
2023-04-18T11:25:56.527Z,13.96
2023-04-18T11:31:02.939Z,13.94
2023-04-18T11:36:06.826Z,13.97
2023-04-18T11:41:16.421Z,14.02
2023-04-18T11:46:19.283Z,14.02
2023-04-18T11:51:38.833Z,14.02
2023-04-18T11:56:48.961Z,14.10
2023-04-18T12:02:14.795Z,14.20
2023-04-18T12:07:39.508Z,14.23
2023-04-18T12:12:49.959Z,14.23
2023-04-18T12:17:57.114Z,14.23
2023-04-18T12:23:00.055Z,14.22
2023-04-18T12:28:18.629Z,14.24
2023-04-18T12:33:21.670Z,14.33
2023-04-18T12:38:24.626Z,14.35
2023-04-18T12:43:27.550Z,14.25
2023-04-18T12:48:30.386Z,14.11
2023-04-18T12:53:33.209Z,13.96
2023-04-18T12:58:36.134Z,13.84
2023-04-18T13:03:39.317Z,13.76
2023-04-18T13:08:42.752Z,13.78
2023-04-18T13:13:45.575Z,13.87
2023-04-18T13:18:48.368Z,13.96
2023-04-18T13:23:51.300Z,13.93
2023-04-18T13:28:54.104Z,13.85
2023-04-18T13:33:57.632Z,13.75
2023-04-18T13:39:01.539Z,13.68
2023-04-18T13:44:04.696Z,13.68
2023-04-18T13:49:07.560Z,13.74
2023-04-18T13:54:10.746Z,13.80
2023-04-18T13:59:13.785Z,13.84
2023-04-18T14:04:17.423Z,13.85
2023-04-18T14:09:20.472Z,13.81
2023-04-18T14:14:23.545Z,13.77
2023-04-18T14:19:27.616Z,13.77
2023-04-18T14:24:30.444Z,13.78
2023-04-18T14:29:33.257Z,13.77
2023-04-18T14:34:37.380Z,13.73
2023-04-18T14:39:41.717Z,13.71
2023-04-18T14:44:44.573Z,13.67
2023-04-18T14:49:47.388Z,13.65
2023-04-18T14:54:50.180Z,13.66
2023-04-18T14:59:54.987Z,13.67
2023-04-18T15:04:59.552Z,13.69
2023-04-18T15:10:02.482Z,13.72
2023-04-18T15:15:06.952Z,13.75
2023-04-18T15:20:10.561Z,13.78
2023-04-18T15:25:16.460Z,13.79
2023-04-18T15:30:19.880Z,13.80
2023-04-18T15:35:23.132Z,13.83
2023-04-18T15:40:28.281Z,13.86
2023-04-18T15:45:31.834Z,13.84
2023-04-18T15:50:34.544Z,13.78
2023-04-18T15:55:37.463Z,13.73
2023-04-18T16:00:40.265Z,13.67
2023-04-18T16:05:43.329Z,13.61
2023-04-18T16:10:52.208Z,13.55
2023-04-18T16:15:55.100Z,13.50
2023-04-18T16:20:58.388Z,13.51
2023-04-18T16:26:01.255Z,13.54
2023-04-18T16:31:07.172Z,13.54
2023-04-18T16:36:12.476Z,13.49
2023-04-18T16:41:15.430Z,13.43
2023-04-18T16:46:19.158Z,13.36
2023-04-18T16:51:22.469Z,13.31
2023-04-18T16:56:25.346Z,13.25
2023-04-18T17:01:28.296Z,13.20
2023-04-18T17:06:32.644Z,13.17
2023-04-18T17:11:39.571Z,13.18
2023-04-18T17:16:43.066Z,13.19
2023-04-18T17:21:46.421Z,13.18
2023-04-18T17:26:49.565Z,13.14
2023-04-18T17:31:52.477Z,13.09
2023-04-18T17:36:55.329Z,13.02
2023-04-18T17:42:02.259Z,12.96
2023-04-18T17:47:07.354Z,12.93
2023-04-18T17:52:10.412Z,12.94
2023-04-18T17:57:13.239Z,12.94
2023-04-18T18:02:16.645Z,12.91
2023-04-18T18:07:19.527Z,12.84
2023-04-18T18:12:22.347Z,12.77
2023-04-18T18:17:25.195Z,12.70
2023-04-18T18:22:28.672Z,12.66
2023-04-18T18:27:31.842Z,12.67
2023-04-18T18:32:34.744Z,12.70
2023-04-18T18:37:37.661Z,12.69
2023-04-18T18:42:41.239Z,12.67
2023-04-18T18:47:43.935Z,12.63
2023-04-18T18:52:46.944Z,12.56
2023-04-18T18:57:49.837Z,12.50
2023-04-18T19:02:52.965Z,12.45
2023-04-18T19:07:56.022Z,12.41
2023-04-18T19:13:00.286Z,12.40
2023-04-18T19:18:03.212Z,12.41
2023-04-18T19:23:06.127Z,12.42
2023-04-18T19:28:09.036Z,12.42
2023-04-18T19:33:12.846Z,12.39
2023-04-18T19:38:15.761Z,12.33
2023-04-18T19:43:18.724Z,12.26
2023-04-18T19:48:21.564Z,12.21
2023-04-18T19:53:24.500Z,12.17
2023-04-18T19:58:39.791Z,12.14
2023-04-18T20:03:43.064Z,12.16
2023-04-18T20:08:46.291Z,12.20
2023-04-18T20:13:49.432Z,12.22
2023-04-18T20:18:54.811Z,12.23
2023-04-18T20:23:59.355Z,12.19
2023-04-18T20:29:03.780Z,12.15
2023-04-18T20:34:06.724Z,12.09
2023-04-18T20:39:09.681Z,12.04
2023-04-18T20:44:13.873Z,12.00
2023-04-18T20:49:16.946Z,12.01
2023-04-18T20:54:19.984Z,12.05
2023-04-18T20:59:22.838Z,12.08
2023-04-18T21:04:26.631Z,12.08
2023-04-18T21:09:36.437Z,12.02
2023-04-18T21:14:39.914Z,11.95
2023-04-18T21:19:51.100Z,11.86
2023-04-18T21:24:53.924Z,11.77
2023-04-18T21:29:57.028Z,11.71
2023-04-18T21:35:00.742Z,11.69
2023-04-18T21:40:04.665Z,11.70
2023-04-18T21:45:11.172Z,11.66
2023-04-18T21:50:14.211Z,11.56
2023-04-18T21:55:17.930Z,11.46
2023-04-18T22:00:20.740Z,11.38
2023-04-18T22:05:23.545Z,11.30
2023-04-18T22:10:26.412Z,11.20
2023-04-18T22:15:30.187Z,11.15
2023-04-18T22:20:33.820Z,11.11
2023-04-18T22:25:36.939Z,11.07
2023-04-18T22:30:39.956Z,11.00
2023-04-18T22:35:42.827Z,10.93
2023-04-18T22:40:45.646Z,10.84
2023-04-18T22:45:48.549Z,10.73
2023-04-18T22:50:51.526Z,10.65
2023-04-18T22:55:54.349Z,10.57
2023-04-18T23:00:57.281Z,10.55
2023-04-18T23:06:01.272Z,10.55
2023-04-18T23:11:04.130Z,10.51
2023-04-18T23:16:08.266Z,10.47
2023-04-18T23:21:11.187Z,10.43
2023-04-18T23:26:15.331Z,10.36
2023-04-18T23:31:19.234Z,10.29
2023-04-18T23:36:22.129Z,10.24
2023-04-18T23:41:25.012Z,10.21
2023-04-18T23:46:27.870Z,10.17
2023-04-18T23:51:31.172Z,10.17
2023-04-18T23:56:34.852Z,10.15
